createdAt,value
2017-12-05T00:02:04.302Z,4.70
2017-12-05T00:04:31.765Z,4.80
2017-12-05T00:06:59.269Z,4.80
2017-12-05T00:09:26.735Z,4.80
2017-12-05T00:11:54.966Z,4.70
2017-12-05T00:14:22.448Z,4.70
2017-12-05T00:16:49.974Z,4.80
2017-12-05T00:19:17.479Z,4.80
2017-12-05T00:21:45.700Z,4.90
2017-12-05T00:24:13.181Z,4.80
2017-12-05T00:26:40.636Z,4.90
2017-12-05T00:29:08.230Z,4.90
2017-12-05T00:31:36.485Z,5.00
2017-12-05T00:34:04.311Z,5.00
2017-12-05T00:36:31.870Z,5.10
2017-12-05T00:38:59.327Z,5.10
2017-12-05T00:41:26.792Z,5.10
2017-12-05T00:43:54.280Z,5.00
2017-12-05T00:46:21.857Z,5.00
2017-12-05T00:48:49.408Z,5.10
2017-12-05T00:51:16.974Z,5.20
2017-12-05T00:53:45.215Z,5.20
2017-12-05T00:56:12.701Z,5.10
2017-12-05T00:58:40.158Z,5.20
2017-12-05T01:01:07.661Z,5.10
2017-12-05T01:03:35.116Z,5.20
2017-12-05T01:06:02.574Z,5.30
2017-12-05T01:08:30.050Z,5.20
2017-12-05T01:10:57.516Z,5.20
2017-12-05T01:13:24.978Z,5.30
2017-12-05T01:15:52.460Z,5.30
2017-12-05T01:18:19.914Z,5.30
2017-12-05T01:20:47.382Z,5.30
2017-12-05T01:23:15.600Z,5.30
2017-12-05T01:25:43.102Z,5.30
2017-12-05T01:28:10.563Z,5.40
2017-12-05T01:30:38.802Z,5.50
2017-12-05T01:33:06.296Z,5.40
2017-12-05T01:35:34.531Z,5.50
2017-12-05T01:38:02.088Z,5.50
2017-12-05T01:40:29.544Z,5.50
2017-12-05T01:42:57.050Z,5.50
2017-12-05T01:45:25.322Z,5.60
2017-12-05T01:47:53.641Z,5.60
2017-12-05T01:50:21.104Z,5.60
2017-12-05T01:52:48.616Z,5.60
2017-12-05T01:55:16.870Z,5.70
2017-12-05T01:57:44.911Z,5.60
2017-12-05T02:00:13.201Z,5.80
2017-12-05T02:02:40.655Z,5.70
2017-12-05T02:05:08.131Z,5.80
2017-12-05T02:07:36.430Z,5.90
2017-12-05T02:10:04.690Z,5.90
2017-12-05T02:12:32.152Z,5.90
2017-12-05T02:14:59.692Z,6.00
2017-12-05T02:17:27.166Z,6.00
2017-12-05T02:19:54.708Z,5.90
2017-12-05T02:22:22.182Z,6.00
2017-12-05T02:24:50.477Z,5.90
2017-12-05T02:27:18.706Z,5.90
2017-12-05T02:29:46.178Z,5.80
2017-12-05T02:32:13.650Z,5.80
2017-12-05T02:34:41.896Z,5.90
2017-12-05T02:37:09.351Z,5.90
2017-12-05T02:39:36.838Z,6.00
2017-12-05T02:42:05.155Z,6.10
2017-12-05T02:44:32.616Z,6.00
2017-12-05T02:47:00.212Z,6.10
2017-12-05T02:49:27.877Z,6.00
2017-12-05T02:51:55.346Z,6.10
2017-12-05T02:54:22.792Z,6.10
2017-12-05T02:56:50.244Z,6.00
2017-12-05T02:59:17.705Z,6.10
2017-12-05T03:01:45.213Z,6.20
2017-12-05T03:04:12.662Z,6.20
2017-12-05T03:06:40.134Z,6.20
2017-12-05T03:09:07.634Z,6.20
2017-12-05T03:11:35.188Z,6.20
2017-12-05T03:14:02.705Z,6.20
2017-12-05T03:16:30.189Z,6.20
2017-12-05T03:18:57.650Z,6.10
2017-12-05T03:21:25.225Z,6.10
2017-12-05T03:23:53.506Z,6.20
2017-12-05T03:26:21.792Z,6.30
2017-12-05T03:28:50.043Z,6.40
2017-12-05T03:31:17.497Z,6.30
2017-12-05T03:33:44.960Z,6.30
2017-12-05T03:36:12.490Z,6.30
2017-12-05T03:38:39.980Z,6.20
2017-12-05T03:41:07.436Z,6.30
2017-12-05T03:43:35.701Z,6.30
2017-12-05T03:46:03.194Z,6.30
2017-12-05T03:48:31.544Z,6.50
2017-12-05T03:50:59.021Z,6.40
2017-12-05T03:53:27.296Z,6.40
2017-12-05T03:55:55.530Z,6.30
2017-12-05T03:58:22.994Z,6.30
2017-12-05T04:00:50.456Z,6.30
2017-12-05T04:03:18.026Z,6.30
2017-12-05T04:05:45.477Z,6.20
2017-12-05T04:08:12.964Z,6.30
2017-12-05T04:10:41.211Z,6.30
2017-12-05T04:13:08.726Z,6.20
2017-12-05T04:15:36.188Z,6.30
2017-12-05T04:18:03.648Z,6.30
2017-12-05T04:20:32.044Z,6.40
2017-12-05T04:22:59.617Z,6.50
2017-12-05T04:25:27.174Z,6.50
2017-12-05T04:27:54.695Z,6.50
2017-12-05T04:30:22.196Z,6.40
2017-12-05T04:32:49.746Z,6.50
2017-12-05T04:35:17.242Z,6.50
2017-12-05T04:37:44.762Z,6.50
2017-12-05T04:40:12.245Z,6.50
2017-12-05T04:42:40.469Z,6.60
2017-12-05T04:45:07.926Z,6.50
2017-12-05T04:47:35.382Z,6.60
2017-12-05T04:50:02.961Z,6.60
2017-12-05T04:52:30.417Z,6.70
2017-12-05T04:54:57.878Z,6.70
2017-12-05T04:57:25.336Z,6.70
2017-12-05T04:59:52.789Z,6.80
2017-12-05T05:02:20.257Z,6.80
2017-12-05T05:04:48.475Z,6.90
2017-12-05T05:07:15.953Z,6.80
2017-12-05T05:09:43.411Z,7.00
2017-12-05T05:12:10.880Z,7.00
2017-12-05T05:14:38.354Z,7.00
2017-12-05T05:17:05.846Z,7.00
2017-12-05T05:19:33.300Z,7.10
2017-12-05T05:22:00.768Z,7.20
2017-12-05T05:24:28.280Z,7.20
2017-12-05T05:26:55.756Z,7.30
2017-12-05T05:29:24.065Z,7.40
2017-12-05T05:31:51.561Z,7.40
2017-12-05T05:34:19.034Z,7.50
2017-12-05T05:36:46.521Z,7.60
2017-12-05T05:39:14.048Z,7.60
2017-12-05T05:41:43.029Z,7.60
2017-12-05T05:44:10.594Z,7.60
2017-12-05T05:46:38.124Z,7.70
2017-12-05T05:49:05.581Z,7.70
2017-12-05T05:51:33.048Z,7.80
2017-12-05T05:54:00.522Z,7.80
2017-12-05T05:56:28.004Z,7.80
2017-12-05T05:58:56.262Z,7.80
2017-12-05T06:01:23.734Z,7.80
2017-12-05T06:03:51.974Z,7.80
2017-12-05T06:06:19.539Z,7.80
2017-12-05T06:08:46.996Z,7.80
2017-12-05T06:11:14.458Z,7.80
2017-12-05T06:13:41.938Z,7.80
2017-12-05T06:16:10.180Z,7.80
2017-12-05T06:18:37.748Z,7.80
2017-12-05T06:21:05.206Z,7.80
2017-12-05T06:23:32.656Z,7.90
2017-12-05T06:26:00.129Z,7.90
2017-12-05T06:28:27.588Z,7.90
2017-12-05T06:30:55.825Z,7.90
2017-12-05T06:33:24.045Z,7.90
2017-12-05T06:35:52.311Z,8.00
2017-12-05T06:38:19.796Z,7.90
2017-12-05T06:40:47.252Z,7.90
2017-12-05T06:43:14.827Z,8.00
2017-12-05T06:45:42.277Z,8.00
2017-12-05T06:48:09.746Z,8.00
2017-12-05T06:50:37.223Z,8.00
2017-12-05T06:53:04.677Z,7.90
2017-12-05T06:55:32.140Z,7.90
2017-12-05T06:57:59.612Z,8.10
2017-12-05T07:00:27.102Z,8.10
2017-12-05T07:02:55.334Z,8.00
2017-12-05T07:05:22.810Z,7.90
2017-12-05T07:07:50.272Z,8.00
2017-12-05T07:10:18.508Z,8.00
2017-12-05T07:12:46.028Z,7.90
2017-12-05T07:15:13.486Z,8.00
2017-12-05T07:17:40.946Z,8.10
2017-12-05T07:20:08.414Z,8.00
2017-12-05T07:22:35.890Z,8.10
2017-12-05T07:25:03.340Z,8.00
2017-12-05T07:27:30.813Z,8.00
2017-12-05T07:29:58.340Z,8.00
2017-12-05T07:32:25.820Z,8.00
2017-12-05T07:34:53.350Z,8.00
2017-12-05T07:37:20.798Z,8.00
2017-12-05T07:39:48.315Z,8.00
2017-12-05T07:42:15.864Z,8.10
2017-12-05T07:44:44.094Z,8.20
2017-12-05T07:47:11.600Z,8.10
2017-12-05T07:49:39.175Z,8.10
2017-12-05T07:52:06.728Z,8.10
2017-12-05T07:54:34.211Z,8.00
2017-12-05T07:57:02.445Z,8.00
2017-12-05T07:59:29.946Z,7.90
2017-12-05T08:01:58.182Z,7.90
2017-12-05T08:04:25.704Z,7.90
2017-12-05T08:06:53.262Z,8.00
2017-12-05T08:09:20.761Z,7.90
2017-12-05T08:11:48.254Z,8.00
2017-12-05T08:14:16.517Z,8.00
2017-12-05T08:16:44.014Z,7.90
2017-12-05T08:19:11.565Z,8.00
2017-12-05T08:21:39.082Z,7.90
2017-12-05T08:24:06.520Z,8.00
2017-12-05T08:26:33.994Z,8.00
2017-12-05T08:29:01.471Z,8.00
2017-12-05T08:31:29.714Z,8.00
2017-12-05T08:33:58.024Z,7.90
2017-12-05T08:36:25.589Z,7.90
2017-12-05T08:38:53.216Z,8.00
2017-12-05T08:41:20.677Z,8.00
2017-12-05T08:43:48.230Z,8.10
2017-12-05T08:46:16.477Z,8.00
2017-12-05T08:48:43.945Z,8.00
2017-12-05T08:51:11.415Z,8.00
2017-12-05T08:53:38.978Z,8.10
2017-12-05T08:56:06.425Z,8.00
2017-12-05T08:58:34.452Z,8.00
2017-12-05T09:01:01.897Z,8.10
2017-12-05T09:03:29.369Z,8.10
2017-12-05T09:05:56.899Z,8.10
2017-12-05T09:08:25.149Z,8.20
2017-12-05T09:10:53.401Z,8.20
2017-12-05T09:13:20.980Z,8.10
2017-12-05T09:15:48.545Z,8.30
2017-12-05T09:18:16.034Z,8.20
2017-12-05T09:20:43.532Z,8.30
2017-12-05T09:23:10.990Z,8.30
2017-12-05T09:25:38.494Z,8.30
2017-12-05T09:28:06.797Z,8.20
2017-12-05T09:30:34.266Z,8.20
2017-12-05T09:33:01.758Z,8.30
2017-12-05T09:35:29.979Z,8.30
2017-12-05T09:37:57.454Z,8.20
2017-12-05T09:40:24.925Z,8.30
2017-12-05T09:42:52.394Z,8.30
2017-12-05T09:45:19.848Z,8.30
2017-12-05T09:47:47.429Z,8.30
2017-12-05T09:50:15.668Z,8.20
2017-12-05T09:52:43.137Z,8.20
2017-12-05T09:55:10.600Z,8.20
2017-12-05T09:57:38.091Z,8.20
2017-12-05T10:00:06.351Z,8.20
2017-12-05T10:02:33.914Z,8.20
2017-12-05T10:05:02.172Z,8.10
2017-12-05T10:07:29.684Z,8.10
2017-12-05T10:09:57.204Z,8.10
2017-12-05T10:12:24.660Z,8.10
2017-12-05T10:14:52.118Z,8.20
2017-12-05T10:17:20.371Z,8.20
2017-12-05T10:19:47.944Z,8.20
2017-12-05T10:22:16.166Z,8.20
2017-12-05T10:24:43.651Z,8.20
2017-12-05T10:27:11.132Z,8.20
2017-12-05T10:29:38.605Z,8.20
2017-12-05T10:32:06.832Z,8.30
2017-12-05T10:34:34.371Z,8.20
2017-12-05T10:37:01.828Z,8.30
2017-12-05T10:39:29.312Z,8.30
2017-12-05T10:41:56.774Z,8.20
2017-12-05T10:44:24.278Z,8.20
2017-12-05T10:46:52.497Z,8.10
2017-12-05T10:49:19.958Z,8.00
2017-12-05T10:51:47.528Z,8.10
2017-12-05T10:54:14.976Z,8.10
2017-12-05T10:56:42.452Z,8.10
2017-12-05T10:59:09.900Z,8.10
2017-12-05T11:01:37.456Z,8.10
2017-12-05T11:04:04.945Z,8.10
2017-12-05T11:06:32.472Z,8.10
2017-12-05T11:09:00.008Z,8.00
2017-12-05T11:11:28.262Z,8.10
2017-12-05T11:13:55.707Z,8.00
2017-12-05T11:16:23.170Z,8.10
2017-12-05T11:18:50.690Z,8.10
2017-12-05T11:21:18.164Z,8.20
2017-12-05T11:23:46.398Z,8.30
2017-12-05T11:26:13.856Z,8.30
2017-12-05T11:28:41.341Z,8.30
2017-12-05T11:31:09.561Z,8.20
2017-12-05T11:33:37.096Z,8.10
2017-12-05T11:36:04.597Z,8.10
2017-12-05T11:38:32.192Z,8.00
2017-12-05T11:41:00.509Z,8.10
2017-12-05T11:43:28.013Z,8.00
2017-12-05T11:45:55.478Z,8.10
2017-12-05T11:48:23.729Z,8.10
2017-12-05T11:50:51.208Z,8.00
2017-12-05T11:53:18.677Z,8.20
2017-12-05T11:55:46.160Z,8.20
2017-12-05T11:58:13.695Z,8.20
2017-12-05T12:00:41.934Z,8.30
2017-12-05T12:03:10.245Z,8.30
2017-12-05T12:05:38.475Z,8.20
2017-12-05T12:08:06.006Z,8.10
2017-12-05T12:10:33.504Z,8.20
2017-12-05T12:13:01.741Z,8.10
2017-12-05T12:15:29.295Z,8.00
2017-12-05T12:17:56.792Z,8.10
2017-12-05T12:20:24.379Z,8.10
2017-12-05T12:22:52.998Z,8.20
2017-12-05T12:25:20.660Z,8.10
2017-12-05T12:27:48.133Z,8.10
2017-12-05T12:30:15.980Z,8.10
2017-12-05T12:32:43.769Z,8.10
2017-12-05T12:35:11.245Z,8.10
2017-12-05T12:37:38.861Z,8.00
2017-12-05T12:40:06.321Z,8.00
2017-12-05T12:42:33.876Z,8.00
2017-12-05T12:45:01.344Z,8.00
2017-12-05T12:47:28.834Z,8.00
2017-12-05T12:49:56.308Z,7.90
2017-12-05T12:52:24.540Z,8.00
2017-12-05T12:54:52.080Z,7.90
2017-12-05T12:57:19.544Z,7.90
2017-12-05T12:59:47.037Z,7.90
2017-12-05T13:02:14.608Z,7.90
2017-12-05T13:04:42.060Z,7.90
2017-12-05T13:07:09.534Z,7.90
2017-12-05T13:09:37.754Z,7.90
2017-12-05T13:12:05.223Z,7.80
2017-12-05T13:14:32.668Z,7.90
2017-12-05T13:17:00.121Z,7.80
2017-12-05T13:19:27.572Z,7.80
2017-12-05T13:21:55.076Z,7.90
2017-12-05T13:24:22.558Z,8.00
2017-12-05T13:26:50.812Z,8.00
2017-12-05T13:29:18.372Z,8.00
2017-12-05T13:31:46.596Z,8.00
2017-12-05T13:34:14.101Z,8.00
2017-12-05T13:36:41.588Z,8.00
2017-12-05T13:39:09.043Z,8.00
2017-12-05T13:41:37.277Z,8.00
2017-12-05T13:44:04.730Z,7.90
2017-12-05T13:46:32.212Z,8.00
2017-12-05T13:49:00.428Z,7.90
2017-12-05T13:51:27.898Z,7.80
2017-12-05T13:53:55.414Z,7.90
2017-12-05T13:56:23.632Z,7.90
2017-12-05T13:58:51.099Z,7.80
2017-12-05T14:01:18.549Z,7.80
2017-12-05T14:03:46.021Z,7.80
2017-12-05T14:06:13.464Z,7.90
2017-12-05T14:08:40.930Z,7.90
2017-12-05T14:11:08.394Z,7.90
2017-12-05T14:13:35.863Z,7.90
2017-12-05T14:16:03.338Z,7.90
2017-12-05T14:18:31.570Z,7.90
2017-12-05T14:20:59.019Z,7.90
2017-12-05T14:23:26.471Z,7.80
2017-12-05T14:25:53.921Z,7.90
2017-12-05T14:28:21.397Z,8.00
2017-12-05T14:30:48.851Z,7.90
2017-12-05T14:33:16.326Z,7.90
2017-12-05T14:35:43.786Z,7.90
2017-12-05T14:38:11.236Z,7.80
2017-12-05T14:40:38.704Z,7.80
2017-12-05T14:43:06.211Z,7.80
2017-12-05T14:45:33.676Z,7.80
2017-12-05T14:48:01.142Z,7.70
2017-12-05T14:50:28.608Z,7.70
2017-12-05T14:52:56.838Z,7.70
2017-12-05T14:55:24.287Z,7.70
2017-12-05T14:57:51.748Z,7.60
2017-12-05T15:00:19.220Z,7.60
2017-12-05T15:02:46.686Z,7.60
2017-12-05T15:05:14.153Z,7.60
2017-12-05T15:07:41.608Z,7.70
2017-12-05T15:10:09.846Z,7.70
2017-12-05T15:12:37.321Z,7.70
2017-12-05T15:15:04.787Z,7.70
2017-12-05T15:17:32.241Z,7.60
2017-12-05T15:19:59.741Z,7.70
2017-12-05T15:22:27.252Z,7.70
2017-12-05T15:24:54.722Z,7.70
2017-12-05T15:27:22.194Z,7.70
2017-12-05T15:29:49.644Z,7.70
2017-12-05T15:32:17.116Z,7.70
2017-12-05T15:34:44.571Z,7.70
2017-12-05T15:37:12.036Z,7.80
2017-12-05T15:39:39.492Z,7.80
2017-12-05T15:42:06.974Z,7.90
2017-12-05T15:44:35.200Z,7.90
2017-12-05T15:47:02.681Z,7.80
2017-12-05T15:49:30.140Z,7.90
2017-12-05T15:51:57.622Z,7.90
2017-12-05T15:54:25.838Z,7.90
2017-12-05T15:56:53.319Z,7.90
2017-12-05T15:59:20.776Z,7.90
2017-12-05T16:01:48.227Z,7.90
2017-12-05T16:04:15.702Z,7.90
2017-12-05T16:06:43.151Z,7.90
2017-12-05T16:09:10.625Z,7.90
2017-12-05T16:11:38.848Z,8.00
2017-12-05T16:14:06.322Z,7.90
2017-12-05T16:16:33.771Z,7.90
2017-12-05T16:19:01.249Z,8.00
2017-12-05T16:21:28.734Z,7.90
2017-12-05T16:23:57.000Z,7.90
2017-12-05T16:26:24.444Z,7.90
2017-12-05T16:28:51.904Z,8.00
2017-12-05T16:31:19.355Z,8.00
2017-12-05T16:33:46.819Z,8.00
2017-12-05T16:36:14.291Z,8.00
2017-12-05T16:38:42.547Z,8.00
2017-12-05T16:41:10.004Z,8.00
2017-12-05T16:43:37.488Z,8.00
2017-12-05T16:46:04.963Z,8.00
2017-12-05T16:48:32.409Z,8.00
2017-12-05T16:50:59.879Z,8.00
2017-12-05T16:53:27.348Z,8.00
2017-12-05T16:55:54.822Z,8.00
2017-12-05T16:58:22.298Z,8.00
2017-12-05T17:00:49.763Z,8.00
2017-12-05T17:03:17.267Z,8.00
2017-12-05T17:05:44.744Z,8.00
2017-12-05T17:08:12.212Z,8.00
2017-12-05T17:10:39.681Z,8.00
2017-12-05T17:13:07.144Z,8.10
2017-12-05T17:15:34.678Z,8.10
2017-12-05T17:18:02.128Z,8.10
2017-12-05T17:20:29.601Z,8.10
2017-12-05T17:22:57.052Z,8.00
2017-12-05T17:25:24.526Z,8.00
2017-12-05T17:27:51.989Z,8.00
2017-12-05T17:30:20.222Z,8.10
2017-12-05T17:32:47.690Z,8.00
2017-12-05T17:35:15.136Z,8.10
2017-12-05T17:37:42.604Z,8.10
2017-12-05T17:40:10.063Z,8.10
2017-12-05T17:42:37.528Z,8.00
2017-12-05T17:45:04.980Z,8.10
2017-12-05T17:47:32.475Z,8.10
2017-12-05T17:50:00.698Z,8.10
2017-12-05T17:52:28.164Z,8.10
2017-12-05T17:54:55.616Z,8.10
2017-12-05T17:57:23.068Z,8.10
2017-12-05T17:59:50.539Z,8.10
2017-12-05T18:02:17.988Z,8.10
2017-12-05T18:04:45.458Z,8.10
2017-12-05T18:07:12.925Z,8.10
2017-12-05T18:09:40.388Z,8.10
2017-12-05T18:12:08.671Z,8.00
2017-12-05T18:14:36.914Z,8.10
2017-12-05T18:17:04.437Z,8.00
2017-12-05T18:19:31.903Z,8.10
2017-12-05T18:21:59.367Z,8.00
2017-12-05T18:24:26.854Z,8.10
2017-12-05T18:26:54.364Z,8.10
2017-12-05T18:29:21.858Z,8.00
2017-12-05T18:31:49.311Z,8.00
2017-12-05T18:34:16.881Z,8.00
2017-12-05T18:36:44.369Z,8.00
2017-12-05T18:39:12.592Z,8.00
2017-12-05T18:41:40.053Z,8.00
2017-12-05T18:44:07.510Z,8.00
2017-12-05T18:46:34.964Z,8.00
2017-12-05T18:49:02.420Z,8.00
2017-12-05T18:51:29.908Z,8.00
2017-12-05T18:53:57.375Z,8.10
2017-12-05T18:56:27.561Z,8.00
2017-12-05T18:58:55.030Z,7.90
2017-12-05T19:01:22.510Z,8.00
2017-12-05T19:03:50.820Z,8.10
2017-12-05T19:06:18.321Z,8.00
2017-12-05T19:08:45.834Z,8.10
2017-12-05T19:11:13.310Z,8.10
2017-12-05T19:13:40.786Z,8.10
2017-12-05T19:16:08.247Z,8.10
2017-12-05T19:18:35.724Z,8.00
2017-12-05T19:21:03.959Z,8.10
2017-12-05T19:23:32.826Z,8.00
2017-12-05T19:26:00.299Z,8.10
2017-12-05T19:28:27.771Z,8.10
2017-12-05T19:30:55.234Z,8.00
2017-12-05T19:33:22.688Z,8.00
2017-12-05T19:35:50.143Z,8.10
2017-12-05T19:38:17.630Z,8.00
2017-12-05T19:40:45.867Z,8.00
2017-12-05T19:43:13.353Z,8.00
2017-12-05T19:45:40.810Z,8.10
2017-12-05T19:48:08.263Z,8.00
2017-12-05T19:50:35.742Z,8.10
2017-12-05T19:53:03.985Z,8.00
2017-12-05T19:55:31.459Z,8.00
2017-12-05T19:57:58.916Z,8.00
2017-12-05T20:00:27.156Z,8.00
2017-12-05T20:02:54.640Z,8.00
2017-12-05T20:05:22.104Z,8.00
2017-12-05T20:07:50.383Z,8.10
2017-12-05T20:10:17.896Z,8.00
2017-12-05T20:12:45.367Z,8.10
2017-12-05T20:15:12.819Z,8.10
2017-12-05T20:17:40.295Z,8.10
2017-12-05T20:20:07.762Z,8.10
2017-12-05T20:22:35.221Z,8.10
2017-12-05T20:25:02.702Z,8.10
2017-12-05T20:27:30.152Z,8.10
2017-12-05T20:29:57.622Z,8.10
2017-12-05T20:32:25.108Z,8.10
2017-12-05T20:34:52.586Z,8.10
2017-12-05T20:37:20.047Z,8.00
2017-12-05T20:39:47.530Z,8.00
2017-12-05T20:42:15.756Z,7.90
2017-12-05T20:44:43.213Z,7.90
2017-12-05T20:47:10.688Z,8.00
2017-12-05T20:49:38.154Z,8.00
2017-12-05T20:52:05.625Z,8.00
2017-12-05T20:54:33.862Z,8.00
2017-12-05T20:57:01.329Z,8.00
2017-12-05T20:59:28.788Z,8.00
2017-12-05T21:01:56.337Z,8.00
2017-12-05T21:04:23.832Z,8.00
2017-12-05T21:06:52.071Z,8.00
2017-12-05T21:09:19.599Z,8.00
2017-12-05T21:11:47.072Z,8.00
2017-12-05T21:14:14.554Z,7.90
2017-12-05T21:16:42.021Z,8.00
2017-12-05T21:19:09.488Z,8.00
2017-12-05T21:21:37.001Z,8.10
2017-12-05T21:24:04.490Z,8.00
2017-12-05T21:26:31.960Z,8.10
2017-12-05T21:29:00.200Z,7.90
2017-12-05T21:31:27.660Z,7.90
2017-12-05T21:33:55.148Z,7.90
2017-12-05T21:36:22.622Z,8.00
2017-12-05T21:38:50.879Z,8.00
2017-12-05T21:41:18.376Z,8.00
2017-12-05T21:43:45.854Z,8.00
2017-12-05T21:46:13.330Z,8.00
2017-12-05T21:48:40.816Z,8.00
2017-12-05T21:51:09.048Z,8.00
2017-12-05T21:53:36.518Z,8.00
2017-12-05T21:56:04.000Z,8.00
2017-12-05T21:58:32.240Z,8.00
2017-12-05T22:00:59.699Z,8.00
2017-12-05T22:03:27.168Z,8.10
2017-12-05T22:05:54.622Z,8.10
2017-12-05T22:08:22.135Z,8.10
2017-12-05T22:10:49.618Z,8.20
2017-12-05T22:13:17.254Z,8.10
2017-12-05T22:15:44.721Z,8.10
2017-12-05T22:18:12.188Z,8.00
2017-12-05T22:20:39.657Z,8.00
2017-12-05T22:23:07.897Z,8.00
2017-12-05T22:25:35.370Z,7.90
2017-12-05T22:28:02.837Z,8.00
2017-12-05T22:30:30.295Z,7.90
2017-12-05T22:32:57.764Z,8.00
2017-12-05T22:35:25.231Z,8.00
2017-12-05T22:37:53.514Z,8.00
2017-12-05T22:40:21.736Z,8.00
2017-12-05T22:42:49.243Z,8.00
2017-12-05T22:45:16.715Z,8.00
2017-12-05T22:47:44.943Z,8.00
2017-12-05T22:50:12.388Z,8.00
2017-12-05T22:52:39.935Z,8.00
2017-12-05T22:55:07.416Z,8.00
2017-12-05T22:57:34.887Z,8.00
2017-12-05T23:00:02.352Z,8.00
2017-12-05T23:02:29.817Z,8.00
2017-12-05T23:04:57.293Z,8.00
2017-12-05T23:07:25.526Z,7.90
2017-12-05T23:09:52.990Z,7.90
2017-12-05T23:12:20.444Z,7.90
2017-12-05T23:14:47.912Z,8.00
2017-12-05T23:17:15.368Z,7.90
2017-12-05T23:19:42.832Z,7.90
2017-12-05T23:22:10.284Z,7.90
2017-12-05T23:24:37.745Z,7.90
2017-12-05T23:27:05.195Z,7.80
2017-12-05T23:29:32.689Z,7.90
2017-12-05T23:32:00.140Z,7.80
2017-12-05T23:34:27.598Z,7.80
2017-12-05T23:36:55.056Z,7.70
2017-12-05T23:39:22.509Z,7.70
2017-12-05T23:41:50.021Z,7.80
2017-12-05T23:44:17.485Z,7.80
2017-12-05T23:46:44.953Z,7.80
2017-12-05T23:49:12.396Z,7.80
2017-12-05T23:51:39.856Z,7.80
2017-12-05T23:54:07.312Z,7.90
2017-12-05T23:56:34.768Z,7.80
2017-12-05T23:59:02.225Z,7.80
